sensor_id;sensor_type;location;lat;lon;timestamp;P1;durP1;ratioP1;P2;durP2;ratioP2
3953;SDS011;1991;48.682;9.030;2023-11-19T00:00:49;5.10;;;2.30;;
3953;SDS011;1991;48.682;9.030;2023-11-19T00:03:16;4.13;;;2.70;;
3953;SDS011;1991;48.682;9.030;2023-11-19T00:05:42;3.20;;;2.90;;
3953;SDS011;1991;48.682;9.030;2023-11-19T00:08:09;3.67;;;2.80;;
3953;SDS011;1991;48.682;9.030;2023-11-19T00:10:35;3.83;;;2.43;;
3953;SDS011;1991;48.682;9.030;2023-11-19T00:13:00;5.23;;;2.50;;
3953;SDS011;1991;48.682;9.030;2023-11-19T00:15:27;4.57;;;2.60;;
3953;SDS011;1991;48.682;9.030;2023-11-19T00:17:53;3.40;;;2.33;;
3953;SDS011;1991;48.682;9.030;2023-11-19T00:20:19;4.20;;;2.80;;
3953;SDS011;1991;48.682;9.030;2023-11-19T00:22:47;6.13;;;3.03;;
3953;SDS011;1991;48.682;9.030;2023-11-19T00:25:16;3.43;;;2.47;;
3953;SDS011;1991;48.682;9.030;2023-11-19T00:27:43;3.27;;;2.37;;
3953;SDS011;1991;48.682;9.030;2023-11-19T00:30:09;4.07;;;2.50;;
3953;SDS011;1991;48.682;9.030;2023-11-19T00:32:35;2.20;;;2.00;;
3953;SDS011;1991;48.682;9.030;2023-11-19T00:35:03;3.73;;;2.20;;
3953;SDS011;1991;48.682;9.030;2023-11-19T00:37:29;2.90;;;2.30;;
3953;SDS011;1991;48.682;9.030;2023-11-19T00:39:55;2.40;;;2.20;;
3953;SDS011;1991;48.682;9.030;2023-11-19T00:42:21;2.80;;;2.07;;
3953;SDS011;1991;48.682;9.030;2023-11-19T00:44:48;2.87;;;1.80;;
3953;SDS011;1991;48.682;9.030;2023-11-19T00:47:13;2.67;;;1.63;;
3953;SDS011;1991;48.682;9.030;2023-11-19T00:49:39;2.60;;;1.70;;
3953;SDS011;1991;48.682;9.030;2023-11-19T00:52:05;2.47;;;1.50;;
3953;SDS011;1991;48.682;9.030;2023-11-19T00:54:31;3.87;;;2.13;;
3953;SDS011;1991;48.682;9.030;2023-11-19T00:56:57;3.10;;;1.20;;
3953;SDS011;1991;48.682;9.030;2023-11-19T00:59:22;1.63;;;1.03;;
3953;SDS011;1991;48.682;9.030;2023-11-19T01:01:48;2.17;;;1.03;;
3953;SDS011;1991;48.682;9.030;2023-11-19T01:04:14;2.20;;;1.30;;
3953;SDS011;1991;48.682;9.030;2023-11-19T01:06:40;1.30;;;1.00;;
3953;SDS011;1991;48.682;9.030;2023-11-19T01:09:07;2.07;;;0.87;;
3953;SDS011;1991;48.682;9.030;2023-11-19T01:11:33;2.10;;;0.80;;
3953;SDS011;1991;48.682;9.030;2023-11-19T01:13:59;1.20;;;0.90;;
3953;SDS011;1991;48.682;9.030;2023-11-19T01:16:25;1.90;;;0.97;;
3953;SDS011;1991;48.682;9.030;2023-11-19T01:18:51;0.83;;;0.83;;
3953;SDS011;1991;48.682;9.030;2023-11-19T01:21:17;0.93;;;0.70;;
3953;SDS011;1991;48.682;9.030;2023-11-19T01:23:43;3.17;;;1.10;;
3953;SDS011;1991;48.682;9.030;2023-11-19T01:26:12;1.80;;;0.80;;
3953;SDS011;1991;48.682;9.030;2023-11-19T01:28:38;2.63;;;1.10;;
3953;SDS011;1991;48.682;9.030;2023-11-19T01:31:11;1.30;;;1.20;;
3953;SDS011;1991;48.682;9.030;2023-11-19T01:33:39;1.80;;;0.97;;
3953;SDS011;1991;48.682;9.030;2023-11-19T01:36:06;1.53;;;0.90;;
3953;SDS011;1991;48.682;9.030;2023-11-19T01:38:33;2.50;;;1.30;;
3953;SDS011;1991;48.682;9.030;2023-11-19T01:40:59;1.43;;;1.20;;
3953;SDS011;1991;48.682;9.030;2023-11-19T01:46:02;1.67;;;0.90;;
3953;SDS011;1991;48.682;9.030;2023-11-19T01:48:31;0.70;;;0.70;;
3953;SDS011;1991;48.682;9.030;2023-11-19T01:50:57;1.37;;;0.67;;
3953;SDS011;1991;48.682;9.030;2023-11-19T01:53:24;0.60;;;0.40;;
3953;SDS011;1991;48.682;9.030;2023-11-19T01:55:50;0.60;;;0.40;;
3953;SDS011;1991;48.682;9.030;2023-11-19T01:58:17;1.30;;;0.60;;
3953;SDS011;1991;48.682;9.030;2023-11-19T02:00:44;0.40;;;0.30;;
3953;SDS011;1991;48.682;9.030;2023-11-19T02:03:10;0.23;;;0.20;;
3953;SDS011;1991;48.682;9.030;2023-11-19T02:05:36;0.20;;;0.20;;
3953;SDS011;1991;48.682;9.030;2023-11-19T02:08:03;0.13;;;0.10;;
3953;SDS011;1991;48.682;9.030;2023-11-19T02:10:29;0.30;;;0.20;;
3953;SDS011;1991;48.682;9.030;2023-11-19T02:12:56;0.93;;;0.17;;
3953;SDS011;1991;48.682;9.030;2023-11-19T02:15:22;0.40;;;0.20;;
3953;SDS011;1991;48.682;9.030;2023-11-19T02:17:49;0.73;;;0.30;;
3953;SDS011;1991;48.682;9.030;2023-11-19T02:20:16;0.10;;;0.10;;
3953;SDS011;1991;48.682;9.030;2023-11-19T02:22:44;0.50;;;0.13;;
3953;SDS011;1991;48.682;9.030;2023-11-19T02:25:23;1.27;;;0.27;;
3953;SDS011;1991;48.682;9.030;2023-11-19T02:27:58;0.40;;;0.20;;
3953;SDS011;1991;48.682;9.030;2023-11-19T02:30:25;0.20;;;0.00;;
3953;SDS011;1991;48.682;9.030;2023-11-19T02:32:52;0.30;;;0.20;;
3953;SDS011;1991;48.682;9.030;2023-11-19T02:35:19;0.37;;;0.20;;
3953;SDS011;1991;48.682;9.030;2023-11-19T02:37:46;0.20;;;0.10;;
3953;SDS011;1991;48.682;9.030;2023-11-19T02:40:12;0.37;;;0.13;;
3953;SDS011;1991;48.682;9.030;2023-11-19T02:42:38;0.23;;;0.10;;
3953;SDS011;1991;48.682;9.030;2023-11-19T02:45:04;0.10;;;0.10;;
3953;SDS011;1991;48.682;9.030;2023-11-19T02:50:53;0.67;;;0.20;;
3953;SDS011;1991;48.682;9.030;2023-11-19T02:53:19;0.10;;;0.10;;
3953;SDS011;1991;48.682;9.030;2023-11-19T02:55:47;1.57;;;0.10;;
3953;SDS011;1991;48.682;9.030;2023-11-19T02:58:15;1.00;;;0.37;;
3953;SDS011;1991;48.682;9.030;2023-11-19T03:00:50;0.20;;;0.13;;
3953;SDS011;1991;48.682;9.030;2023-11-19T03:03:23;0.10;;;0.03;;
3953;SDS011;1991;48.682;9.030;2023-11-19T03:05:53;0.23;;;0.20;;
3953;SDS011;1991;48.682;9.030;2023-11-19T03:08:20;1.23;;;0.20;;
3953;SDS011;1991;48.682;9.030;2023-11-19T03:10:45;1.60;;;0.30;;
3953;SDS011;1991;48.682;9.030;2023-11-19T03:13:12;0.37;;;0.20;;
3953;SDS011;1991;48.682;9.030;2023-11-19T03:19:04;0.33;;;0.30;;
3953;SDS011;1991;48.682;9.030;2023-11-19T03:21:30;0.10;;;0.10;;
3953;SDS011;1991;48.682;9.030;2023-11-19T03:23:56;0.27;;;0.17;;
3953;SDS011;1991;48.682;9.030;2023-11-19T03:26:25;1.20;;;0.30;;
3953;SDS011;1991;48.682;9.030;2023-11-19T03:33:24;0.50;;;0.33;;
3953;SDS011;1991;48.682;9.030;2023-11-19T03:39:03;0.30;;;0.13;;
3953;SDS011;1991;48.682;9.030;2023-11-19T03:41:28;0.30;;;0.20;;
3953;SDS011;1991;48.682;9.030;2023-11-19T03:43:54;0.40;;;0.30;;
3953;SDS011;1991;48.682;9.030;2023-11-19T03:46:20;0.30;;;0.10;;
3953;SDS011;1991;48.682;9.030;2023-11-19T03:48:47;1.00;;;0.20;;
3953;SDS011;1991;48.682;9.030;2023-11-19T03:51:14;0.43;;;0.10;;
3953;SDS011;1991;48.682;9.030;2023-11-19T03:53:43;0.20;;;0.10;;
3953;SDS011;1991;48.682;9.030;2023-11-19T03:56:09;0.30;;;0.20;;
3953;SDS011;1991;48.682;9.030;2023-11-19T03:58:36;0.20;;;0.20;;
3953;SDS011;1991;48.682;9.030;2023-11-19T04:01:03;0.17;;;0.07;;
3953;SDS011;1991;48.682;9.030;2023-11-19T04:03:35;1.80;;;0.10;;
3953;SDS011;1991;48.682;9.030;2023-11-19T04:06:01;0.40;;;0.10;;
3953;SDS011;1991;48.682;9.030;2023-11-19T04:08:27;0.10;;;0.10;;
3953;SDS011;1991;48.682;9.030;2023-11-19T04:10:52;0.17;;;0.00;;
3953;SDS011;1991;48.682;9.030;2023-11-19T04:13:18;0.00;;;0.00;;
3953;SDS011;1991;48.682;9.030;2023-11-19T04:15:44;0.10;;;0.10;;
3953;SDS011;1991;48.682;9.030;2023-11-19T04:18:10;0.00;;;0.00;;
3953;SDS011;1991;48.682;9.030;2023-11-19T04:20:36;0.00;;;0.00;;
3953;SDS011;1991;48.682;9.030;2023-11-19T04:23:01;0.57;;;0.07;;
3953;SDS011;1991;48.682;9.030;2023-11-19T04:25:27;0.07;;;0.07;;
3953;SDS011;1991;48.682;9.030;2023-11-19T04:27:52;0.73;;;0.13;;
3953;SDS011;1991;48.682;9.030;2023-11-19T04:32:53;1.50;;;0.00;;
3953;SDS011;1991;48.682;9.030;2023-11-19T04:35:21;0.90;;;0.10;;
3953;SDS011;1991;48.682;9.030;2023-11-19T04:37:47;0.00;;;0.00;;
3953;SDS011;1991;48.682;9.030;2023-11-19T04:40:13;0.70;;;0.03;;
3953;SDS011;1991;48.682;9.030;2023-11-19T04:42:38;1.00;;;0.10;;
3953;SDS011;1991;48.682;9.030;2023-11-19T04:45:07;0.00;;;0.00;;
3953;SDS011;1991;48.682;9.030;2023-11-19T04:47:35;0.00;;;0.00;;
3953;SDS011;1991;48.682;9.030;2023-11-19T04:50:01;0.10;;;0.10;;
3953;SDS011;1991;48.682;9.030;2023-11-19T04:52:28;0.10;;;0.10;;
3953;SDS011;1991;48.682;9.030;2023-11-19T04:54:54;0.40;;;0.10;;
3953;SDS011;1991;48.682;9.030;2023-11-19T04:57:19;0.10;;;0.10;;
3953;SDS011;1991;48.682;9.030;2023-11-19T04:59:45;1.80;;;0.10;;
3953;SDS011;1991;48.682;9.030;2023-11-19T05:02:10;0.20;;;0.10;;
3953;SDS011;1991;48.682;9.030;2023-11-19T05:04:36;0.10;;;0.10;;
3953;SDS011;1991;48.682;9.030;2023-11-19T05:07:02;1.20;;;0.10;;
3953;SDS011;1991;48.682;9.030;2023-11-19T05:09:28;0.20;;;0.20;;
3953;SDS011;1991;48.682;9.030;2023-11-19T05:11:55;0.20;;;0.20;;
3953;SDS011;1991;48.682;9.030;2023-11-19T05:14:21;0.30;;;0.13;;
3953;SDS011;1991;48.682;9.030;2023-11-19T05:16:47;0.20;;;0.20;;
3953;SDS011;1991;48.682;9.030;2023-11-19T05:19:12;1.23;;;0.20;;
3953;SDS011;1991;48.682;9.030;2023-11-19T05:21:41;0.20;;;0.20;;
3953;SDS011;1991;48.682;9.030;2023-11-19T05:24:12;0.77;;;0.10;;
3953;SDS011;1991;48.682;9.030;2023-11-19T05:26:38;1.13;;;0.20;;
3953;SDS011;1991;48.682;9.030;2023-11-19T05:29:04;0.70;;;0.20;;
3953;SDS011;1991;48.682;9.030;2023-11-19T05:31:29;1.17;;;0.10;;
3953;SDS011;1991;48.682;9.030;2023-11-19T05:33:55;0.13;;;0.10;;
3953;SDS011;1991;48.682;9.030;2023-11-19T05:36:21;1.50;;;0.20;;
3953;SDS011;1991;48.682;9.030;2023-11-19T05:38:46;0.10;;;0.10;;
3953;SDS011;1991;48.682;9.030;2023-11-19T05:41:12;0.53;;;0.20;;
3953;SDS011;1991;48.682;9.030;2023-11-19T05:43:38;0.10;;;0.10;;
3953;SDS011;1991;48.682;9.030;2023-11-19T05:46:05;1.10;;;0.10;;
3953;SDS011;1991;48.682;9.030;2023-11-19T05:48:31;0.87;;;0.37;;
3953;SDS011;1991;48.682;9.030;2023-11-19T05:50:57;0.10;;;0.10;;
3953;SDS011;1991;48.682;9.030;2023-11-19T05:53:23;0.10;;;0.10;;
3953;SDS011;1991;48.682;9.030;2023-11-19T05:55:49;0.50;;;0.30;;
3953;SDS011;1991;48.682;9.030;2023-11-19T05:58:22;0.40;;;0.17;;
3953;SDS011;1991;48.682;9.030;2023-11-19T06:00:49;0.20;;;0.20;;
3953;SDS011;1991;48.682;9.030;2023-11-19T06:03:15;0.20;;;0.10;;
3953;SDS011;1991;48.682;9.030;2023-11-19T06:05:41;0.17;;;0.17;;
3953;SDS011;1991;48.682;9.030;2023-11-19T06:08:10;0.10;;;0.10;;
3953;SDS011;1991;48.682;9.030;2023-11-19T06:10:38;0.10;;;0.10;;
3953;SDS011;1991;48.682;9.030;2023-11-19T06:13:07;0.37;;;0.20;;
3953;SDS011;1991;48.682;9.030;2023-11-19T06:15:35;0.20;;;0.20;;
3953;SDS011;1991;48.682;9.030;2023-11-19T06:18:01;0.10;;;0.10;;
3953;SDS011;1991;48.682;9.030;2023-11-19T06:20:28;0.20;;;0.20;;
3953;SDS011;1991;48.682;9.030;2023-11-19T06:22:54;0.20;;;0.20;;
3953;SDS011;1991;48.682;9.030;2023-11-19T06:25:21;0.20;;;0.13;;
3953;SDS011;1991;48.682;9.030;2023-11-19T06:27:48;0.20;;;0.20;;
3953;SDS011;1991;48.682;9.030;2023-11-19T06:30:14;0.30;;;0.30;;
3953;SDS011;1991;48.682;9.030;2023-11-19T06:32:40;0.20;;;0.20;;
3953;SDS011;1991;48.682;9.030;2023-11-19T06:35:06;1.03;;;0.13;;
3953;SDS011;1991;48.682;9.030;2023-11-19T06:37:32;0.33;;;0.23;;
3953;SDS011;1991;48.682;9.030;2023-11-19T06:39:58;0.30;;;0.23;;
3953;SDS011;1991;48.682;9.030;2023-11-19T06:42:25;0.30;;;0.10;;
3953;SDS011;1991;48.682;9.030;2023-11-19T06:50:02;0.73;;;0.10;;
3953;SDS011;1991;48.682;9.030;2023-11-19T06:52:30;0.20;;;0.20;;
3953;SDS011;1991;48.682;9.030;2023-11-19T06:54:56;0.23;;;0.13;;
3953;SDS011;1991;48.682;9.030;2023-11-19T06:57:24;0.20;;;0.20;;
3953;SDS011;1991;48.682;9.030;2023-11-19T07:03:07;1.00;;;0.33;;
3953;SDS011;1991;48.682;9.030;2023-11-19T07:05:35;0.20;;;0.20;;
3953;SDS011;1991;48.682;9.030;2023-11-19T07:08:03;0.67;;;0.30;;
3953;SDS011;1991;48.682;9.030;2023-11-19T07:10:30;0.80;;;0.40;;
3953;SDS011;1991;48.682;9.030;2023-11-19T07:12:56;0.20;;;0.20;;
3953;SDS011;1991;48.682;9.030;2023-11-19T07:15:22;0.30;;;0.20;;
3953;SDS011;1991;48.682;9.030;2023-11-19T07:17:48;3.90;;;0.27;;
3953;SDS011;1991;48.682;9.030;2023-11-19T07:20:13;0.20;;;0.20;;
3953;SDS011;1991;48.682;9.030;2023-11-19T07:22:40;0.30;;;0.30;;
3953;SDS011;1991;48.682;9.030;2023-11-19T07:25:08;0.37;;;0.20;;
3953;SDS011;1991;48.682;9.030;2023-11-19T07:27:35;0.20;;;0.20;;
3953;SDS011;1991;48.682;9.030;2023-11-19T07:35:19;0.27;;;0.20;;
3953;SDS011;1991;48.682;9.030;2023-11-19T07:38:37;0.50;;;0.37;;
3953;SDS011;1991;48.682;9.030;2023-11-19T07:44:10;0.10;;;0.10;;
3953;SDS011;1991;48.682;9.030;2023-11-19T07:46:38;0.40;;;0.20;;
3953;SDS011;1991;48.682;9.030;2023-11-19T07:49:03;2.17;;;0.10;;
3953;SDS011;1991;48.682;9.030;2023-11-19T07:51:35;0.50;;;0.10;;
3953;SDS011;1991;48.682;9.030;2023-11-19T07:54:05;0.93;;;0.30;;
3953;SDS011;1991;48.682;9.030;2023-11-19T07:56:36;0.73;;;0.30;;
3953;SDS011;1991;48.682;9.030;2023-11-19T08:01:37;0.30;;;0.30;;
3953;SDS011;1991;48.682;9.030;2023-11-19T08:04:02;0.67;;;0.33;;
3953;SDS011;1991;48.682;9.030;2023-11-19T08:11:40;0.27;;;0.27;;
3953;SDS011;1991;48.682;9.030;2023-11-19T08:14:06;0.53;;;0.30;;
3953;SDS011;1991;48.682;9.030;2023-11-19T08:16:32;0.40;;;0.30;;
3953;SDS011;1991;48.682;9.030;2023-11-19T08:18:57;0.30;;;0.30;;
3953;SDS011;1991;48.682;9.030;2023-11-19T08:21:23;0.30;;;0.20;;
3953;SDS011;1991;48.682;9.030;2023-11-19T08:23:49;0.30;;;0.20;;
3953;SDS011;1991;48.682;9.030;2023-11-19T08:26:15;1.37;;;0.30;;
3953;SDS011;1991;48.682;9.030;2023-11-19T08:28:41;0.67;;;0.30;;
3953;SDS011;1991;48.682;9.030;2023-11-19T08:31:06;3.50;;;0.40;;
3953;SDS011;1991;48.682;9.030;2023-11-19T08:33:32;0.50;;;0.50;;
3953;SDS011;1991;48.682;9.030;2023-11-19T08:35:57;0.70;;;0.30;;
3953;SDS011;1991;48.682;9.030;2023-11-19T08:38:24;0.97;;;0.30;;
3953;SDS011;1991;48.682;9.030;2023-11-19T08:40:50;0.83;;;0.30;;
3953;SDS011;1991;48.682;9.030;2023-11-19T08:43:17;0.87;;;0.20;;
3953;SDS011;1991;48.682;9.030;2023-11-19T08:45:42;1.50;;;0.30;;
3953;SDS011;1991;48.682;9.030;2023-11-19T08:48:08;1.63;;;0.30;;
3953;SDS011;1991;48.682;9.030;2023-11-19T08:50:34;0.57;;;0.20;;
3953;SDS011;1991;48.682;9.030;2023-11-19T08:53:00;0.43;;;0.10;;
3953;SDS011;1991;48.682;9.030;2023-11-19T08:55:25;3.17;;;0.30;;
3953;SDS011;1991;48.682;9.030;2023-11-19T08:57:51;0.40;;;0.30;;
3953;SDS011;1991;48.682;9.030;2023-11-19T09:00:17;0.68;;;0.20;;
3953;SDS011;1991;48.682;9.030;2023-11-19T09:02:43;0.40;;;0.20;;
3953;SDS011;1991;48.682;9.030;2023-11-19T09:05:08;0.65;;;0.30;;
3953;SDS011;1991;48.682;9.030;2023-11-19T09:07:34;0.63;;;0.20;;
3953;SDS011;1991;48.682;9.030;2023-11-19T09:10:00;0.90;;;0.30;;
3953;SDS011;1991;48.682;9.030;2023-11-19T09:12:26;0.60;;;0.32;;
3953;SDS011;1991;48.682;9.030;2023-11-19T09:14:52;0.50;;;0.32;;
3953;SDS011;1991;48.682;9.030;2023-11-19T09:17:17;1.02;;;0.50;;
3953;SDS011;1991;48.682;9.030;2023-11-19T09:19:43;1.23;;;0.82;;
3953;SDS011;1991;48.682;9.030;2023-11-19T09:22:09;1.92;;;1.05;;
3953;SDS011;1991;48.682;9.030;2023-11-19T09:24:34;0.90;;;0.70;;
3953;SDS011;1991;48.682;9.030;2023-11-19T09:27:00;1.05;;;0.32;;
3953;SDS011;1991;48.682;9.030;2023-11-19T09:29:25;0.50;;;0.40;;
3953;SDS011;1991;48.682;9.030;2023-11-19T09:31:51;1.05;;;0.30;;
3953;SDS011;1991;48.682;9.030;2023-11-19T09:34:17;0.90;;;0.20;;
3953;SDS011;1991;48.682;9.030;2023-11-19T09:36:42;0.30;;;0.30;;
3953;SDS011;1991;48.682;9.030;2023-11-19T09:39:12;0.30;;;0.22;;
3953;SDS011;1991;48.682;9.030;2023-11-19T09:41:42;1.08;;;0.40;;
3953;SDS011;1991;48.682;9.030;2023-11-19T09:44:09;0.52;;;0.20;;
3953;SDS011;1991;48.682;9.030;2023-11-19T09:46:36;0.63;;;0.32;;
3953;SDS011;1991;48.682;9.030;2023-11-19T09:49:03;0.30;;;0.25;;
3953;SDS011;1991;48.682;9.030;2023-11-19T09:51:33;0.93;;;0.40;;
3953;SDS011;1991;48.682;9.030;2023-11-19T09:54:00;2.08;;;0.45;;
3953;SDS011;1991;48.682;9.030;2023-11-19T09:56:25;0.47;;;0.30;;
3953;SDS011;1991;48.682;9.030;2023-11-19T09:58:54;1.17;;;0.30;;
3953;SDS011;1991;48.682;9.030;2023-11-19T10:01:20;1.45;;;0.25;;
3953;SDS011;1991;48.682;9.030;2023-11-19T10:03:46;0.60;;;0.30;;
3953;SDS011;1991;48.682;9.030;2023-11-19T10:06:13;2.92;;;0.20;;
3953;SDS011;1991;48.682;9.030;2023-11-19T10:08:40;1.38;;;0.77;;
3953;SDS011;1991;48.682;9.030;2023-11-19T10:11:07;0.68;;;0.30;;
3953;SDS011;1991;48.682;9.030;2023-11-19T10:13:36;1.02;;;0.50;;
3953;SDS011;1991;48.682;9.030;2023-11-19T10:16:15;1.30;;;0.30;;
3953;SDS011;1991;48.682;9.030;2023-11-19T10:18:47;0.43;;;0.25;;
3953;SDS011;1991;48.682;9.030;2023-11-19T10:21:16;0.57;;;0.30;;
3953;SDS011;1991;48.682;9.030;2023-11-19T10:23:50;2.30;;;1.27;;
3953;SDS011;1991;48.682;9.030;2023-11-19T10:26:17;0.82;;;0.50;;
3953;SDS011;1991;48.682;9.030;2023-11-19T10:28:45;1.00;;;0.40;;
3953;SDS011;1991;48.682;9.030;2023-11-19T10:31:12;1.75;;;1.25;;
3953;SDS011;1991;48.682;9.030;2023-11-19T10:33:42;1.33;;;0.68;;
3953;SDS011;1991;48.682;9.030;2023-11-19T10:36:10;0.73;;;0.52;;
3953;SDS011;1991;48.682;9.030;2023-11-19T10:38:39;2.72;;;0.22;;
3953;SDS011;1991;48.682;9.030;2023-11-19T10:41:05;0.70;;;0.30;;
3953;SDS011;1991;48.682;9.030;2023-11-19T10:43:32;0.50;;;0.50;;
3953;SDS011;1991;48.682;9.030;2023-11-19T10:46:12;0.90;;;0.28;;
3953;SDS011;1991;48.682;9.030;2023-11-19T10:48:39;2.40;;;1.35;;
3953;SDS011;1991;48.682;9.030;2023-11-19T10:51:05;1.52;;;0.75;;
3953;SDS011;1991;48.682;9.030;2023-11-19T10:53:37;1.65;;;0.50;;
3953;SDS011;1991;48.682;9.030;2023-11-19T10:56:04;0.30;;;0.20;;
3953;SDS011;1991;48.682;9.030;2023-11-19T10:58:35;0.55;;;0.30;;
3953;SDS011;1991;48.682;9.030;2023-11-19T11:01:03;1.30;;;0.50;;
3953;SDS011;1991;48.682;9.030;2023-11-19T11:03:59;3.50;;;2.85;;
3953;SDS011;1991;48.682;9.030;2023-11-19T11:06:28;1.45;;;0.70;;
3953;SDS011;1991;48.682;9.030;2023-11-19T11:08:55;0.95;;;0.52;;
3953;SDS011;1991;48.682;9.030;2023-11-19T11:11:21;1.27;;;0.55;;
3953;SDS011;1991;48.682;9.030;2023-11-19T11:13:48;2.05;;;0.75;;
3953;SDS011;1991;48.682;9.030;2023-11-19T11:16:17;1.55;;;0.65;;
3953;SDS011;1991;48.682;9.030;2023-11-19T11:18:44;1.13;;;0.70;;
3953;SDS011;1991;48.682;9.030;2023-11-19T11:21:15;1.48;;;0.75;;
3953;SDS011;1991;48.682;9.030;2023-11-19T11:23:54;3.22;;;0.80;;
3953;SDS011;1991;48.682;9.030;2023-11-19T11:26:34;4.75;;;2.90;;
3953;SDS011;1991;48.682;9.030;2023-11-19T11:32:08;1.17;;;0.70;;
3953;SDS011;1991;48.682;9.030;2023-11-19T11:35:12;1.33;;;0.50;;
3953;SDS011;1991;48.682;9.030;2023-11-19T11:40:28;2.13;;;0.50;;
3953;SDS011;1991;48.682;9.030;2023-11-19T11:42:53;1.40;;;0.50;;
3953;SDS011;1991;48.682;9.030;2023-11-19T11:45:19;1.85;;;0.50;;
3953;SDS011;1991;48.682;9.030;2023-11-19T11:48:08;2.08;;;0.60;;
3953;SDS011;1991;48.682;9.030;2023-11-19T11:50:47;1.45;;;0.65;;
3953;SDS011;1991;48.682;9.030;2023-11-19T11:53:21;1.02;;;0.30;;
3953;SDS011;1991;48.682;9.030;2023-11-19T11:58:21;0.63;;;0.40;;
3953;SDS011;1991;48.682;9.030;2023-11-19T12:00:51;0.47;;;0.20;;
3953;SDS011;1991;48.682;9.030;2023-11-19T12:03:18;0.43;;;0.20;;
3953;SDS011;1991;48.682;9.030;2023-11-19T12:05:47;0.82;;;0.40;;
3953;SDS011;1991;48.682;9.030;2023-11-19T12:08:14;1.40;;;0.32;;
3953;SDS011;1991;48.682;9.030;2023-11-19T12:10:50;0.50;;;0.50;;
3953;SDS011;1991;48.682;9.030;2023-11-19T12:13:17;0.75;;;0.38;;
3953;SDS011;1991;48.682;9.030;2023-11-19T12:18:29;1.02;;;0.50;;
3953;SDS011;1991;48.682;9.030;2023-11-19T12:20:58;3.60;;;0.40;;
3953;SDS011;1991;48.682;9.030;2023-11-19T12:23:30;0.82;;;0.30;;
3953;SDS011;1991;48.682;9.030;2023-11-19T12:25:57;1.88;;;0.45;;
3953;SDS011;1991;48.682;9.030;2023-11-19T12:28:23;2.03;;;0.28;;
3953;SDS011;1991;48.682;9.030;2023-11-19T12:30:51;0.55;;;0.17;;
3953;SDS011;1991;48.682;9.030;2023-11-19T12:33:18;1.13;;;0.40;;
3953;SDS011;1991;48.682;9.030;2023-11-19T12:35:45;0.88;;;0.22;;
3953;SDS011;1991;48.682;9.030;2023-11-19T12:38:21;1.33;;;0.30;;
3953;SDS011;1991;48.682;9.030;2023-11-19T12:41:07;3.35;;;1.05;;
3953;SDS011;1991;48.682;9.030;2023-11-19T12:43:36;1.13;;;0.40;;
3953;SDS011;1991;48.682;9.030;2023-11-19T12:46:20;1.00;;;0.20;;
3953;SDS011;1991;48.682;9.030;2023-11-19T12:48:50;2.72;;;0.30;;
3953;SDS011;1991;48.682;9.030;2023-11-19T12:51:16;1.05;;;0.30;;
3953;SDS011;1991;48.682;9.030;2023-11-19T12:56:15;1.35;;;0.40;;
3953;SDS011;1991;48.682;9.030;2023-11-19T12:58:41;1.63;;;0.60;;
3953;SDS011;1991;48.682;9.030;2023-11-19T13:01:08;1.85;;;0.22;;
3953;SDS011;1991;48.682;9.030;2023-11-19T13:03:38;1.75;;;0.52;;
3953;SDS011;1991;48.682;9.030;2023-11-19T13:06:10;1.20;;;0.38;;
3953;SDS011;1991;48.682;9.030;2023-11-19T13:08:37;2.00;;;0.70;;
3953;SDS011;1991;48.682;9.030;2023-11-19T13:11:05;1.00;;;0.40;;
3953;SDS011;1991;48.682;9.030;2023-11-19T13:13:31;4.57;;;0.60;;
3953;SDS011;1991;48.682;9.030;2023-11-19T13:16:04;1.02;;;0.40;;
3953;SDS011;1991;48.682;9.030;2023-11-19T13:18:34;1.83;;;0.77;;
3953;SDS011;1991;48.682;9.030;2023-11-19T13:20:59;2.63;;;0.63;;
3953;SDS011;1991;48.682;9.030;2023-11-19T13:23:25;4.03;;;0.60;;
3953;SDS011;1991;48.682;9.030;2023-11-19T13:25:51;1.85;;;0.45;;
3953;SDS011;1991;48.682;9.030;2023-11-19T13:28:16;0.57;;;0.30;;
3953;SDS011;1991;48.682;9.030;2023-11-19T13:30:42;1.70;;;0.40;;
3953;SDS011;1991;48.682;9.030;2023-11-19T13:33:08;0.43;;;0.30;;
3953;SDS011;1991;48.682;9.030;2023-11-19T13:35:37;1.63;;;0.40;;
3953;SDS011;1991;48.682;9.030;2023-11-19T13:38:05;1.30;;;0.50;;
3953;SDS011;1991;48.682;9.030;2023-11-19T13:40:31;1.75;;;0.40;;
3953;SDS011;1991;48.682;9.030;2023-11-19T13:42:56;1.27;;;0.32;;
3953;SDS011;1991;48.682;9.030;2023-11-19T13:45:22;1.80;;;0.82;;
3953;SDS011;1991;48.682;9.030;2023-11-19T13:47:47;1.02;;;0.30;;
3953;SDS011;1991;48.682;9.030;2023-11-19T13:50:14;1.38;;;0.60;;
3953;SDS011;1991;48.682;9.030;2023-11-19T13:52:42;1.85;;;0.30;;
3953;SDS011;1991;48.682;9.030;2023-11-19T13:55:09;0.65;;;0.40;;
3953;SDS011;1991;48.682;9.030;2023-11-19T13:57:35;0.95;;;0.30;;
3953;SDS011;1991;48.682;9.030;2023-11-19T14:00:11;1.95;;;0.40;;
3953;SDS011;1991;48.682;9.030;2023-11-19T14:02:41;1.55;;;0.63;;
3953;SDS011;1991;48.682;9.030;2023-11-19T14:05:07;1.10;;;0.50;;
3953;SDS011;1991;48.682;9.030;2023-11-19T14:07:34;1.40;;;0.30;;
3953;SDS011;1991;48.682;9.030;2023-11-19T14:09:59;0.93;;;0.65;;
3953;SDS011;1991;48.682;9.030;2023-11-19T14:12:25;1.38;;;0.50;;
3953;SDS011;1991;48.682;9.030;2023-11-19T14:14:51;1.27;;;0.47;;
3953;SDS011;1991;48.682;9.030;2023-11-19T14:17:16;1.08;;;0.55;;
3953;SDS011;1991;48.682;9.030;2023-11-19T14:19:43;3.45;;;0.60;;
3953;SDS011;1991;48.682;9.030;2023-11-19T14:22:10;0.45;;;0.45;;
3953;SDS011;1991;48.682;9.030;2023-11-19T14:24:36;1.45;;;0.40;;
3953;SDS011;1991;48.682;9.030;2023-11-19T14:27:02;1.05;;;0.52;;
3953;SDS011;1991;48.682;9.030;2023-11-19T14:29:28;0.60;;;0.30;;
3953;SDS011;1991;48.682;9.030;2023-11-19T14:31:54;1.77;;;0.52;;
3953;SDS011;1991;48.682;9.030;2023-11-19T14:34:20;1.45;;;0.40;;
3953;SDS011;1991;48.682;9.030;2023-11-19T14:36:47;0.70;;;0.60;;
3953;SDS011;1991;48.682;9.030;2023-11-19T14:39:12;2.40;;;0.63;;
3953;SDS011;1991;48.682;9.030;2023-11-19T14:41:38;1.25;;;0.40;;
3953;SDS011;1991;48.682;9.030;2023-11-19T14:44:04;1.05;;;0.65;;
3953;SDS011;1991;48.682;9.030;2023-11-19T14:46:30;1.45;;;0.32;;
3953;SDS011;1991;48.682;9.030;2023-11-19T14:48:56;2.05;;;0.50;;
3953;SDS011;1991;48.682;9.030;2023-11-19T14:51:23;1.42;;;0.45;;
3953;SDS011;1991;48.682;9.030;2023-11-19T14:53:49;0.25;;;0.22;;
3953;SDS011;1991;48.682;9.030;2023-11-19T14:56:14;2.00;;;0.40;;
3953;SDS011;1991;48.682;9.030;2023-11-19T14:58:41;2.00;;;0.40;;
3953;SDS011;1991;48.682;9.030;2023-11-19T15:01:11;2.70;;;1.25;;
3953;SDS011;1991;48.682;9.030;2023-11-19T15:03:38;0.65;;;0.30;;
3953;SDS011;1991;48.682;9.030;2023-11-19T15:06:03;0.90;;;0.40;;
3953;SDS011;1991;48.682;9.030;2023-11-19T15:08:29;1.38;;;0.50;;
3953;SDS011;1991;48.682;9.030;2023-11-19T15:10:55;1.08;;;0.30;;
3953;SDS011;1991;48.682;9.030;2023-11-19T15:13:23;0.70;;;0.50;;
3953;SDS011;1991;48.682;9.030;2023-11-19T15:15:49;1.02;;;0.43;;
3953;SDS011;1991;48.682;9.030;2023-11-19T15:18:23;1.38;;;0.80;;
3953;SDS011;1991;48.682;9.030;2023-11-19T15:20:50;2.65;;;1.00;;
3953;SDS011;1991;48.682;9.030;2023-11-19T15:23:43;0.60;;;0.43;;
3953;SDS011;1991;48.682;9.030;2023-11-19T15:26:09;0.63;;;0.40;;
3953;SDS011;1991;48.682;9.030;2023-11-19T15:28:36;1.45;;;0.60;;
3953;SDS011;1991;48.682;9.030;2023-11-19T15:31:03;2.13;;;0.50;;
3953;SDS011;1991;48.682;9.030;2023-11-19T15:36:05;0.77;;;0.35;;
3953;SDS011;1991;48.682;9.030;2023-11-19T15:38:33;0.60;;;0.40;;
3953;SDS011;1991;48.682;9.030;2023-11-19T15:40:59;1.60;;;0.68;;
3953;SDS011;1991;48.682;9.030;2023-11-19T15:43:25;2.22;;;0.63;;
3953;SDS011;1991;48.682;9.030;2023-11-19T15:45:51;1.70;;;0.50;;
3953;SDS011;1991;48.682;9.030;2023-11-19T15:48:18;2.03;;;0.60;;
3953;SDS011;1991;48.682;9.030;2023-11-19T15:50:44;1.33;;;0.60;;
3953;SDS011;1991;48.682;9.030;2023-11-19T15:55:45;1.65;;;0.77;;
3953;SDS011;1991;48.682;9.030;2023-11-19T15:58:21;1.00;;;0.90;;
3953;SDS011;1991;48.682;9.030;2023-11-19T16:00:48;3.30;;;0.90;;
3953;SDS011;1991;48.682;9.030;2023-11-19T16:03:13;2.03;;;0.63;;
3953;SDS011;1991;48.682;9.030;2023-11-19T16:05:39;1.53;;;0.60;;
3953;SDS011;1991;48.682;9.030;2023-11-19T16:08:05;2.95;;;0.75;;
3953;SDS011;1991;48.682;9.030;2023-11-19T16:10:32;0.60;;;0.50;;
3953;SDS011;1991;48.682;9.030;2023-11-19T16:12:58;1.63;;;0.80;;
3953;SDS011;1991;48.682;9.030;2023-11-19T16:15:24;1.80;;;0.80;;
3953;SDS011;1991;48.682;9.030;2023-11-19T16:17:49;1.77;;;0.90;;
3953;SDS011;1991;48.682;9.030;2023-11-19T16:20:15;2.53;;;1.23;;